Time;durP1;ratioP1;P1;durP2;ratioP2;P2;SDS_P1;SDS_P2;PMS_P1;PMS_P2;Temp;Humidity;BMP_temperature;BMP_pressure;BME280_temperature;BME280_humidity;BME280_pressure;Samples;Min_cycle;Max_cycle;Signal;HPM_P1;HPM_P2
2024/03/10 00:00:14;;;;;;;2.47;1.50;;;9.60;99.90;;;;;;4983498;28;20060;-79
2024/03/10 00:02:45;;;;;;;2.75;1.65;;;9.50;99.90;;;;;;4984310;28;20054;-79
2024/03/10 00:05:13;;;;;;;2.33;1.67;;;9.50;99.90;;;;;;4965331;28;20054;-79
2024/03/10 00:07:44;;;;;;;2.47;1.83;;;9.50;99.90;;;;;;4937387;28;20061;-79
2024/03/10 00:10:14;;;;;;;2.20;1.50;;;9.50;99.90;;;;;;5000666;28;20136;-80
2024/03/10 00:12:46;;;;;;;1.70;1.42;;;9.50;1.00;;;;;;4982925;28;20057;-80
2024/03/10 00:15:15;;;;;;;1.83;1.58;;;9.50;48.80;;;;;;4984870;28;20128;-80
2024/03/10 00:17:43;;;;;;;1.83;1.48;;;9.50;99.90;;;;;;4983305;28;20050;-80
2024/03/10 00:20:10;;;;;;;1.55;1.10;;;9.50;83.10;;;;;;4983501;28;20129;-80
2024/03/10 00:22:39;;;;;;;2.22;1.38;;;9.50;99.90;;;;;;4982845;28;20270;-81
2024/03/10 00:25:09;;;;;;;1.77;1.58;;;9.50;99.90;;;;;;4983475;28;20119;-80
2024/03/10 00:27:36;;;;;;;2.25;1.75;;;9.50;99.90;;;;;;4982763;28;20046;-80
2024/03/10 00:30:05;;;;;;;1.70;1.60;;;9.50;99.90;;;;;;4984294;28;20050;-81
2024/03/10 00:32:32;;;;;;;1.60;1.25;;;9.50;99.90;;;;;;4987543;28;20073;-81
2024/03/10 00:35:01;;;;;;;1.30;1.10;;;9.50;99.90;;;;;;4987969;28;20068;-80
2024/03/10 00:37:28;;;;;;;0.85;0.80;;;9.50;99.90;;;;;;4988405;28;20770;-80
2024/03/10 00:39:56;;;;;;;1.52;0.88;;;9.60;99.90;;;;;;4987984;28;20093;-81
2024/03/10 00:42:24;;;;;;;1.17;0.98;;;9.50;99.90;;;;;;4954234;28;20060;-81
2024/03/10 00:44:51;;;;;;;1.15;0.93;;;9.50;1.00;;;;;;4986845;28;20061;-81
2024/03/10 00:47:18;;;;;;;1.58;1.00;;;9.60;1.00;;;;;;4986611;28;20054;-80
2024/03/10 00:49:45;;;;;;;0.90;0.63;;;9.60;91.70;;;;;;4970700;28;20058;-80
2024/03/10 00:52:12;;;;;;;0.60;0.60;;;9.60;99.90;;;;;;4970222;28;20568;-80
2024/03/10 00:54:39;;;;;;;0.77;0.73;;;9.60;99.90;;;;;;4987096;28;20049;-80
2024/03/10 00:57:06;;;;;;;0.70;0.70;;;9.70;99.90;;;;;;4985156;28;20057;-80
2024/03/10 00:59:33;;;;;;;0.68;0.60;;;9.70;99.90;;;;;;4986597;28;20234;-80
2024/03/10 01:02:00;;;;;;;0.60;0.60;;;9.70;99.90;;;;;;4986664;28;20141;-80
2024/03/10 01:04:28;;;;;;;0.93;0.70;;;9.70;99.90;;;;;;5002529;28;20056;-80
2024/03/10 01:06:56;;;;;;;0.60;0.60;;;9.70;99.90;;;;;;5002298;28;20492;-81
2024/03/10 01:09:23;;;;;;;0.80;0.80;;;9.70;99.90;;;;;;4960836;28;20057;-80
2024/03/10 01:11:51;;;;;;;0.70;0.70;;;9.70;99.90;;;;;;4986905;28;20108;-80
2024/03/10 01:14:18;;;;;;;0.43;0.43;;;9.70;99.90;;;;;;4971052;28;20053;-80
2024/03/10 01:16:46;;;;;;;0.70;0.65;;;9.70;99.90;;;;;;4988479;28;20145;-80
2024/03/10 01:19:13;;;;;;;0.55;0.50;;;9.70;99.90;;;;;;4987222;28;20072;-80
2024/03/10 01:21:44;;;;;;;0.60;0.50;;;9.70;99.90;;;;;;4971249;28;20060;-80
2024/03/10 01:24:12;;;;;;;0.88;0.70;;;9.70;99.90;;;;;;4987203;28;20045;-80
2024/03/10 01:26:40;;;;;;;1.00;0.70;;;9.70;20.10;;;;;;4971727;28;20046;-80
2024/03/10 01:29:08;;;;;;;0.57;0.50;;;9.60;92.50;;;;;;5003111;28;20054;-80
2024/03/10 01:31:35;;;;;;;0.40;0.40;;;9.60;99.90;;;;;;4983648;28;20537;-80
2024/03/10 01:34:02;;;;;;;0.50;0.50;;;9.60;99.90;;;;;;4983670;28;20070;-80
2024/03/10 01:36:30;;;;;;;0.50;0.47;;;9.60;99.90;;;;;;4968198;28;20042;-80
2024/03/10 01:38:57;;;;;;;0.70;0.57;;;9.70;99.90;;;;;;4967638;28;20273;-80
2024/03/10 01:41:25;;;;;;;0.68;0.60;;;9.60;99.90;;;;;;4983530;28;20058;-81
2024/03/10 01:43:53;;;;;;;0.40;0.40;;;9.60;99.90;;;;;;4980486;28;20054;-80
2024/03/10 01:46:21;;;;;;;0.43;0.43;;;9.70;99.90;;;;;;4967218;28;20068;-80
2024/03/10 01:48:49;;;;;;;0.55;0.55;;;9.60;1.00;;;;;;4970519;28;20054;-80
2024/03/10 01:51:16;;;;;;;0.60;0.60;;;9.60;99.90;;;;;;4981031;28;20046;-80
2024/03/10 01:53:43;;;;;;;0.63;0.52;;;9.60;99.90;;;;;;4965866;28;20124;-79
2024/03/10 01:56:11;;;;;;;0.40;0.32;;;9.70;99.90;;;;;;4981928;28;20050;-80
2024/03/10 01:58:38;;;;;;;0.43;0.43;;;9.60;99.90;;;;;;4981254;28;20799;-79
2024/03/10 02:01:05;;;;;;;0.50;0.50;;;9.60;1.00;;;;;;4983594;28;20081;-80
2024/03/10 02:03:33;;;;;;;0.30;0.30;;;9.50;99.90;;;;;;4982924;28;20105;-80
2024/03/10 02:06:00;;;;;;;0.38;0.38;;;9.50;99.90;;;;;;4966955;28;20047;-80
2024/03/10 02:08:28;;;;;;;0.30;0.30;;;9.60;99.90;;;;;;4967041;28;20050;-80
2024/03/10 02:10:55;;;;;;;0.40;0.40;;;9.50;99.90;;;;;;4983309;28;20054;-80
2024/03/10 02:13:23;;;;;;;0.30;0.30;;;9.50;99.90;;;;;;4981565;28;20081;-80
2024/03/10 02:16:00;;;;;;;0.40;0.40;;;9.50;99.90;;;;;;4983123;28;20117;-80
2024/03/10 02:18:28;;;;;;;0.40;0.40;;;9.50;99.90;;;;;;4981339;28;20118;-80
2024/03/10 02:20:55;;;;;;;0.45;0.45;;;9.50;99.90;;;;;;4982512;28;20505;-80
2024/03/10 02:23:23;;;;;;;0.32;0.32;;;9.50;99.90;;;;;;4966070;28;20139;-80
2024/03/10 02:25:52;;;;;;;1.33;0.28;;;9.60;99.90;;;;;;4966566;28;20054;-80
2024/03/10 02:28:34;;;;;;;0.35;0.35;;;9.50;99.90;;;;;;4979630;28;20066;-80
2024/03/10 02:47:54;;;;;;;0.45;0.40;;;9.50;99.90;;;;;;4990828;28;20046;-81
2024/03/10 02:50:21;;;;;;;0.40;0.40;;;9.50;99.90;;;;;;4987913;28;20100;-80
2024/03/10 02:52:49;;;;;;;0.52;0.52;;;9.50;99.90;;;;;;5005281;28;20050;-80
2024/03/10 02:55:16;;;;;;;0.30;0.30;;;9.40;99.90;;;;;;5004196;28;20064;-79
2024/03/10 02:57:46;;;;;;;0.40;0.40;;;9.40;99.90;;;;;;5003801;28;20604;-80
2024/03/10 03:00:15;;;;;;;0.30;0.30;;;9.40;99.90;;;;;;4988276;28;20111;-80
2024/03/10 03:02:43;;;;;;;0.43;0.43;;;9.40;99.90;;;;;;4972025;28;20519;-81
2024/03/10 03:05:11;;;;;;;0.55;0.55;;;9.40;99.90;;;;;;4988580;28;20129;-80
2024/03/10 03:07:38;;;;;;;0.30;0.30;;;9.30;98.60;;;;;;4988235;28;20050;-80
2024/03/10 03:10:05;;;;;;;0.20;0.20;;;9.30;99.90;;;;;;4987784;28;20057;-80
2024/03/10 03:12:33;;;;;;;0.50;0.50;;;9.30;11.40;;;;;;4971491;28;20042;-80
2024/03/10 03:15:01;;;;;;;0.40;0.40;;;9.30;70.80;;;;;;4986920;28;20624;-80
2024/03/10 03:17:29;;;;;;;0.55;0.40;;;9.30;97.90;;;;;;5005755;28;20643;-80
2024/03/10 03:20:00;;;;;;;0.30;0.30;;;9.30;99.90;;;;;;5004127;28;20050;-80
2024/03/10 03:22:27;;;;;;;0.32;0.32;;;9.30;99.90;;;;;;4972966;28;20045;-80
2024/03/10 03:24:54;;;;;;;0.40;0.40;;;9.30;99.90;;;;;;4987948;28;20069;-80
2024/03/10 03:27:22;;;;;;;0.40;0.40;;;9.30;1.00;;;;;;5004623;28;20057;-80
2024/03/10 03:29:49;;;;;;;0.43;0.40;;;9.30;1.00;;;;;;5004202;28;20196;-80
2024/03/10 03:32:16;;;;;;;0.40;0.40;;;9.30;1.00;;;;;;4987542;28;20136;-80
2024/03/10 03:34:43;;;;;;;0.40;0.40;;;9.30;1.00;;;;;;4987835;28;20065;-80
2024/03/10 03:37:10;;;;;;;0.40;0.40;;;9.30;92.70;;;;;;4988066;28;20058;-79
2024/03/10 03:39:38;;;;;;;0.40;0.40;;;9.30;18.80;;;;;;4971328;28;20778;-80
2024/03/10 03:42:05;;;;;;;0.40;0.40;;;9.30;63.60;;;;;;4987005;28;20132;-80
2024/03/10 03:44:32;;;;;;;0.20;0.20;;;9.30;32.00;;;;;;4986721;28;20054;-80
2024/03/10 03:46:59;;;;;;;0.30;0.30;;;9.20;40.30;;;;;;4971873;28;20046;-80
2024/03/10 03:49:26;;;;;;;0.40;0.30;;;9.20;90.30;;;;;;4982893;28;20046;-79
2024/03/10 03:51:53;;;;;;;0.40;0.40;;;9.20;1.00;;;;;;4986815;28;20084;-79
2024/03/10 03:54:20;;;;;;;0.30;0.30;;;9.20;32.50;;;;;;4954987;28;20050;-82
2024/03/10 03:56:48;;;;;;;0.30;0.30;;;9.20;5.00;;;;;;4971054;28;20064;-81
2024/03/10 03:59:15;;;;;;;0.60;0.60;;;9.20;83.20;;;;;;4986320;28;20208;-79
2024/03/10 04:01:42;;;;;;;0.30;0.30;;;9.20;20.10;;;;;;4988001;28;20064;-79
2024/03/10 04:04:09;;;;;;;0.32;0.32;;;9.20;99.90;;;;;;4971176;28;20046;-81
2024/03/10 04:06:35;;;;;;;0.38;0.38;;;9.20;99.90;;;;;;4989574;28;20382;-79
2024/03/10 04:09:03;;;;;;;0.40;0.40;;;9.20;44.70;;;;;;4990888;28;20050;-79
2024/03/10 04:11:30;;;;;;;0.30;0.30;;;9.20;1.00;;;;;;4991630;28;20053;-79
2024/03/10 04:13:57;;;;;;;0.30;0.30;;;9.10;1.00;;;;;;4989288;28;20563;-79
2024/03/10 04:16:23;;;;;;;0.38;0.38;;;9.10;99.90;;;;;;4991815;28;20475;-79
2024/03/10 04:18:50;;;;;;;0.38;0.38;;;9.10;99.90;;;;;;4974937;28;20050;-79
2024/03/10 04:21:17;;;;;;;0.30;0.30;;;9.10;99.90;;;;;;5008790;28;20053;-79
2024/03/10 04:23:44;;;;;;;0.35;0.35;;;9.10;49.70;;;;;;4990751;28;20421;-78
2024/03/10 04:26:11;;;;;;;0.77;0.60;;;9.10;99.90;;;;;;4991492;28;20072;-79
2024/03/10 04:28:38;;;;;;;0.47;0.47;;;9.10;99.90;;;;;;4989084;28;20050;-78
2024/03/10 04:31:05;;;;;;;0.40;0.40;;;9.10;99.90;;;;;;4991233;28;20140;-79
2024/03/10 04:33:33;;;;;;;0.40;0.40;;;9.00;99.90;;;;;;4974523;28;20053;-81
2024/03/10 04:36:00;;;;;;;0.40;0.35;;;9.10;88.30;;;;;;4991121;28;20563;-79
2024/03/10 04:38:28;;;;;;;0.40;0.40;;;9.10;73.90;;;;;;4974760;28;20062;-81
2024/03/10 04:40:56;;;;;;;0.20;0.20;;;9.00;13.90;;;;;;4990678;28;20137;-79
2024/03/10 04:43:23;;;;;;;0.20;0.20;;;9.00;1.00;;;;;;5005578;28;20053;-79
2024/03/10 04:45:53;;;;;;;0.30;0.30;;;9.00;1.00;;;;;;4975133;28;20057;-79
2024/03/10 04:48:20;;;;;;;0.30;0.30;;;8.90;1.00;;;;;;4990698;28;20129;-79
2024/03/10 04:50:48;;;;;;;0.40;0.40;;;8.90;99.90;;;;;;4991041;28;20436;-78
2024/03/10 04:53:15;;;;;;;0.30;0.30;;;8.90;99.90;;;;;;4980633;28;20070;-79
2024/03/10 04:55:43;;;;;;;0.40;0.40;;;8.80;99.90;;;;;;4974523;28;20049;-78
2024/03/10 04:58:10;;;;;;;0.30;0.30;;;8.70;1.00;;;;;;4989035;28;20058;-79
2024/03/10 05:00:37;;;;;;;0.50;0.50;;;8.70;25.60;;;;;;4959721;28;20058;-77
2024/03/10 05:03:05;;;;;;;0.63;0.55;;;8.70;99.90;;;;;;4979311;28;20543;-79
2024/03/10 05:05:32;;;;;;;0.40;0.40;;;8.60;99.90;;;;;;4990849;28;20079;-79
2024/03/10 05:08:00;;;;;;;0.60;0.60;;;8.60;99.90;;;;;;4973975;28;20084;-79
2024/03/10 05:10:27;;;;;;;0.40;0.40;;;8.60;99.90;;;;;;4990215;28;20088;-78
2024/03/10 05:12:54;;;;;;;0.65;0.60;;;8.60;1.00;;;;;;4972426;28;20623;-79
2024/03/10 05:15:21;;;;;;;0.45;0.45;;;8.60;1.00;;;;;;4990746;28;20058;-79
2024/03/10 05:17:48;;;;;;;0.40;0.40;;;8.60;1.00;;;;;;5007460;28;20098;-78
2024/03/10 05:20:15;;;;;;;0.68;0.47;;;8.60;1.00;;;;;;4990426;28;20464;-79
2024/03/10 05:22:42;;;;;;;0.60;0.60;;;8.60;1.00;;;;;;4990104;28;20057;-79
2024/03/10 05:25:11;;;;;;;0.40;0.40;;;8.60;1.00;;;;;;4990325;28;20054;-79
2024/03/10 05:27:41;;;;;;;0.43;0.40;;;8.60;49.60;;;;;;4989198;28;20046;-79
2024/03/10 05:30:09;;;;;;;0.65;0.40;;;8.60;87.70;;;;;;4989129;28;20078;-81
2024/03/10 05:32:36;;;;;;;0.30;0.30;;;8.60;71.30;;;;;;4989864;28;20152;-82
2024/03/10 05:35:05;;;;;;;0.40;0.40;;;8.70;90.10;;;;;;4990077;28;20046;-83
2024/03/10 05:37:32;;;;;;;0.35;0.35;;;8.60;1.00;;;;;;4974181;28;20054;-82
2024/03/10 05:39:59;;;;;;;0.50;0.40;;;8.60;29.60;;;;;;4989372;28;20462;-79
2024/03/10 05:42:26;;;;;;;1.25;0.60;;;8.60;14.70;;;;;;4989001;28;20058;-82
2024/03/10 05:44:53;;;;;;;0.52;0.52;;;8.60;12.80;;;;;;4988199;28;20132;-83
2024/03/10 05:47:21;;;;;;;0.85;0.70;;;8.60;48.80;;;;;;4989611;28;20049;-80
2024/03/10 05:49:49;;;;;;;0.88;0.70;;;8.60;99.90;;;;;;4973466;28;20049;-79
2024/03/10 05:52:16;;;;;;;0.57;0.57;;;8.60;99.90;;;;;;4989677;28;20057;-81
2024/03/10 05:54:43;;;;;;;0.60;0.60;;;8.60;99.90;;;;;;5006011;28;20046;-81
2024/03/10 05:57:11;;;;;;;0.45;0.45;;;8.60;99.90;;;;;;4989146;28;20050;-81
2024/03/10 05:59:38;;;;;;;0.50;0.50;;;8.60;99.90;;;;;;4988596;28;20129;-80
2024/03/10 06:02:06;;;;;;;0.40;0.40;;;8.70;99.90;;;;;;4988767;28;20806;-79
2024/03/10 06:04:33;;;;;;;0.43;0.43;;;8.70;99.90;;;;;;4982347;28;20057;-79
2024/03/10 06:07:00;;;;;;;0.40;0.40;;;8.60;99.90;;;;;;4966672;28;20054;-78
2024/03/10 06:09:30;;;;;;;0.40;0.40;;;8.60;99.90;;;;;;4952152;28;20406;-79
2024/03/10 06:11:56;;;;;;;0.47;0.47;;;8.60;99.90;;;;;;4954094;28;20166;-79
2024/03/10 06:14:24;;;;;;;0.40;0.30;;;8.60;99.90;;;;;;5000608;28;20133;-80
2024/03/10 06:16:51;;;;;;;0.95;0.68;;;8.70;99.90;;;;;;4969179;28;20057;-81
2024/03/10 06:27:35;;;;;;;0.70;0.70;;;8.70;99.90;;;;;;4987574;28;20050;-80
2024/03/10 06:30:03;;;;;;;0.55;0.50;;;8.70;99.90;;;;;;4983540;28;20104;-79
2024/03/10 06:32:30;;;;;;;0.70;0.40;;;8.70;99.90;;;;;;4969154;28;20112;-80
2024/03/10 06:34:57;;;;;;;0.63;0.47;;;8.70;99.90;;;;;;4985355;28;20050;-79
2024/03/10 06:37:24;;;;;;;0.60;0.60;;;8.70;99.90;;;;;;5002814;28;20057;-79
2024/03/10 06:39:51;;;;;;;0.25;0.25;;;8.80;99.90;;;;;;4984499;28;20450;-79
2024/03/10 06:42:18;;;;;;;0.73;0.65;;;8.80;99.90;;;;;;4984901;28;20116;-79
2024/03/10 06:44:45;;;;;;;0.40;0.40;;;8.80;99.90;;;;;;4983903;28;20049;-79
2024/03/10 06:47:12;;;;;;;0.52;0.50;;;8.80;99.90;;;;;;4984903;28;20491;-80
2024/03/10 06:49:39;;;;;;;0.60;0.60;;;8.80;99.90;;;;;;4984772;28;20516;-80
2024/03/10 06:52:06;;;;;;;0.30;0.20;;;8.80;99.90;;;;;;4984276;28;20128;-79
2024/03/10 06:54:34;;;;;;;0.57;0.50;;;8.80;1.00;;;;;;4984691;28;20054;-79
2024/03/10 06:57:02;;;;;;;0.50;0.50;;;8.90;99.90;;;;;;4983866;28;20065;-80
2024/03/10 06:59:29;;;;;;;0.40;0.40;;;8.90;99.90;;;;;;4983769;28;20058;-79
2024/03/10 07:01:57;;;;;;;0.40;0.40;;;8.90;99.90;;;;;;4984003;28;20062;-80
2024/03/10 07:04:26;;;;;;;0.32;0.32;;;8.90;99.90;;;;;;4968584;28;20089;-81
2024/03/10 07:06:54;;;;;;;0.43;0.43;;;9.00;99.90;;;;;;4984792;28;20050;-81
2024/03/10 07:09:25;;;;;;;0.60;0.50;;;9.00;94.60;;;;;;4982935;28;20081;-79
2024/03/10 07:11:53;;;;;;;0.95;0.80;;;9.00;99.90;;;;;;4994424;28;20120;-79
2024/03/10 07:14:20;;;;;;;0.60;0.60;;;9.00;99.90;;;;;;4994838;28;20042;-81
2024/03/10 07:16:47;;;;;;;0.60;0.60;;;9.10;99.90;;;;;;4984167;28;20678;-80
2024/03/10 07:19:16;;;;;;;0.80;0.70;;;9.10;13.70;;;;;;4983941;28;20616;-81
2024/03/10 07:21:44;;;;;;;0.75;0.70;;;9.10;70.80;;;;;;4984422;28;20060;-80
2024/03/10 07:24:11;;;;;;;0.85;0.75;;;9.10;99.90;;;;;;4983922;28;20057;-80
2024/03/10 07:26:38;;;;;;;0.88;0.80;;;9.20;22.20;;;;;;4983493;28;20100;-80
2024/03/10 07:29:06;;;;;;;1.67;0.88;;;9.10;20.50;;;;;;4982917;28;20914;-80
2024/03/10 07:31:33;;;;;;;0.50;0.50;;;9.20;1.00;;;;;;4984089;28;20116;-81
2024/03/10 07:34:00;;;;;;;0.60;0.55;;;9.20;1.00;;;;;;4981324;28;20050;-82
2024/03/10 07:36:27;;;;;;;1.65;1.00;;;9.20;99.90;;;;;;4983586;28;20151;-82
2024/03/10 07:38:53;;;;;;;0.60;0.60;;;9.10;1.00;;;;;;4982755;28;20057;-81
2024/03/10 07:41:20;;;;;;;0.85;0.80;;;9.20;1.00;;;;;;4983145;28;20061;-79
2024/03/10 07:43:48;;;;;;;0.90;0.80;;;9.20;70.00;;;;;;4989466;28;20050;-80
2024/03/10 07:46:15;;;;;;;0.82;0.82;;;9.20;99.90;;;;;;4982793;28;20077;-80
2024/03/10 07:48:43;;;;;;;1.00;0.80;;;9.30;1.00;;;;;;4978081;28;20108;-80
2024/03/10 07:51:12;;;;;;;1.67;1.15;;;9.40;83.10;;;;;;4990964;28;20066;-81
2024/03/10 07:53:39;;;;;;;2.15;1.73;;;9.40;99.90;;;;;;5006212;28;20050;-80
2024/03/10 07:56:06;;;;;;;2.03;1.70;;;9.50;1.00;;;;;;5002790;28;20054;-80
2024/03/10 07:58:33;;;;;;;1.55;1.17;;;9.50;1.00;;;;;;4977476;28;20072;-83
2024/03/10 08:01:00;;;;;;;1.50;1.20;;;9.60;1.00;;;;;;4981034;28;20046;-80
2024/03/10 08:03:27;;;;;;;1.42;1.30;;;9.70;1.00;;;;;;4994148;28;20064;-82
2024/03/10 08:05:55;;;;;;;1.67;1.40;;;9.70;99.90;;;;;;4981343;28;20072;-80
2024/03/10 08:08:23;;;;;;;1.25;1.08;;;9.80;99.90;;;;;;4980350;28;20543;-81
2024/03/10 08:10:50;;;;;;;1.00;0.90;;;9.80;99.90;;;;;;4981188;28;20505;-80
2024/03/10 08:13:18;;;;;;;0.82;0.82;;;9.90;99.90;;;;;;4994366;28;20137;-80
2024/03/10 08:15:47;;;;;;;1.35;1.13;;;9.90;1.00;;;;;;4980795;28;20054;-80
2024/03/10 08:18:14;;;;;;;1.10;1.00;;;9.90;99.90;;;;;;4997910;28;20054;-81
2024/03/10 08:20:41;;;;;;;1.10;1.00;;;9.80;99.90;;;;;;4981171;28;20127;-80
2024/03/10 08:23:08;;;;;;;1.10;1.00;;;9.90;99.90;;;;;;4981816;28;20042;-79
2024/03/10 08:25:35;;;;;;;0.80;0.80;;;9.90;99.90;;;;;;4998624;28;20054;-80
2024/03/10 08:28:04;;;;;;;1.00;0.90;;;9.90;99.90;;;;;;4995817;28;20942;-79
2024/03/10 08:30:32;;;;;;;0.80;0.80;;;9.90;99.90;;;;;;4987345;28;20057;-81
2024/03/10 08:32:59;;;;;;;0.75;0.75;;;9.80;99.90;;;;;;4976552;28;20074;-80
2024/03/10 08:35:26;;;;;;;0.70;0.70;;;9.90;99.90;;;;;;4976772;28;20263;-81
2024/03/10 08:37:53;;;;;;;0.85;0.70;;;9.80;99.90;;;;;;4977288;28;20108;-80
2024/03/10 08:40:21;;;;;;;1.10;1.00;;;9.80;99.90;;;;;;4976797;28;20757;-80
2024/03/10 08:42:48;;;;;;;0.80;0.80;;;9.80;80.40;;;;;;4984631;28;20733;-80
2024/03/10 08:45:15;;;;;;;0.95;0.90;;;9.80;99.90;;;;;;5006319;28;20497;-80
2024/03/10 08:47:45;;;;;;;0.85;0.77;;;9.80;99.90;;;;;;4977474;28;20058;-77
2024/03/10 08:50:12;;;;;;;0.90;0.90;;;9.90;99.90;;;;;;4977581;28;20050;-85
2024/03/10 08:52:40;;;;;;;0.98;0.88;;;9.90;99.90;;;;;;4968484;28;20054;-80
2024/03/10 08:55:08;;;;;;;1.10;1.00;;;10.00;1.00;;;;;;4980316;28;20132;-78
2024/03/10 08:57:37;;;;;;;1.15;0.93;;;10.00;1.00;;;;;;4980479;28;20054;-80
2024/03/10 09:00:05;;;;;;;1.10;1.00;;;10.10;1.00;;;;;;4979467;28;20053;-79
2024/03/10 09:02:32;;;;;;;0.93;0.88;;;10.20;1.00;;;;;;4976687;28;20086;-79
2024/03/10 09:05:00;;;;;;;0.82;0.80;;;10.30;99.90;;;;;;4972011;28;20073;-79
2024/03/10 09:07:28;;;;;;;1.45;1.00;;;10.30;99.90;;;;;;4968571;28;20099;-80
2024/03/10 09:09:57;;;;;;;1.45;1.08;;;10.40;1.00;;;;;;4977400;28;20054;-79
2024/03/10 09:12:24;;;;;;;1.60;1.20;;;10.40;99.90;;;;;;4978324;28;20226;-79
2024/03/10 09:14:52;;;;;;;1.63;1.20;;;10.30;99.90;;;;;;4976524;28;20076;-79
2024/03/10 09:17:18;;;;;;;1.45;1.08;;;10.30;99.90;;;;;;4981105;28;20046;-79
2024/03/10 09:19:46;;;;;;;1.20;1.10;;;10.30;99.90;;;;;;4984990;28;20092;-79
2024/03/10 09:22:13;;;;;;;2.00;1.00;;;10.30;99.90;;;;;;4981966;28;20533;-79
2024/03/10 09:24:42;;;;;;;1.30;1.00;;;10.40;99.90;;;;;;4961043;28;20062;-80
2024/03/10 09:27:10;;;;;;;1.10;1.00;;;10.40;99.90;;;;;;4963851;28;20054;-79
2024/03/10 09:29:37;;;;;;;1.10;1.00;;;10.40;99.90;;;;;;4980400;28;20052;-79
2024/03/10 09:32:06;;;;;;;0.82;0.82;;;10.50;33.40;;;;;;4955954;28;20490;-79
2024/03/10 09:34:36;;;;;;;1.75;1.40;;;10.50;51.40;;;;;;4977595;28;20051;-79
2024/03/10 09:37:06;;;;;;;1.00;0.90;;;10.50;68.30;;;;;;4964573;28;20065;-79
2024/03/10 09:39:34;;;;;;;1.00;0.90;;;10.60;99.90;;;;;;4963219;28;20050;-79
2024/03/10 09:42:03;;;;;;;1.10;0.82;;;10.60;1.00;;;;;;4961810;28;20077;-79
2024/03/10 09:44:31;;;;;;;0.80;0.80;;;10.60;1.00;;;;;;4979275;28;20046;-79
2024/03/10 09:46:58;;;;;;;0.90;0.68;;;10.50;1.00;;;;;;4980689;28;20551;-80
2024/03/10 09:49:25;;;;;;;0.77;0.77;;;10.50;1.00;;;;;;4979478;28;20054;-80
2024/03/10 09:51:53;;;;;;;1.40;1.20;;;10.50;1.00;;;;;;4979829;28;20054;-80
2024/03/10 09:54:21;;;;;;;1.10;0.93;;;10.50;1.00;;;;;;4979317;28;20050;-79
2024/03/10 09:56:50;;;;;;;0.70;0.70;;;10.50;1.00;;;;;;4962929;28;20062;-79
2024/03/10 09:59:41;;;;;;;0.77;0.70;;;10.50;1.00;;;;;;4978825;28;20247;-81
2024/03/10 10:02:35;;;;;;;0.95;0.80;;;10.50;1.00;;;;;;4978580;28;20382;-82
2024/03/10 10:05:03;;;;;;;0.93;0.77;;;10.50;1.00;;;;;;4989302;28;20054;-82
2024/03/10 10:07:31;;;;;;;0.68;0.60;;;10.60;8.10;;;;;;4980455;28;20129;-81
2024/03/10 10:09:59;;;;;;;0.70;0.70;;;10.70;1.00;;;;;;4976529;28;20201;-81
2024/03/10 10:12:27;;;;;;;0.70;0.60;;;10.90;1.00;;;;;;4972848;28;20133;-81
2024/03/10 10:14:55;;;;;;;0.88;0.80;;;10.90;1.00;;;;;;4978248;28;20054;-82
2024/03/10 10:17:25;;;;;;;0.77;0.77;;;11.00;1.00;;;;;;4979655;28;20109;-82
2024/03/10 10:19:52;;;;;;;0.82;0.60;;;11.00;99.90;;;;;;4980720;28;20054;-82
2024/03/10 10:22:20;;;;;;;0.60;0.60;;;11.10;99.90;;;;;;4978864;28;20050;-81
2024/03/10 10:25:04;;;;;;;0.47;0.47;;;11.20;99.90;;;;;;4963274;28;20366;-81
2024/03/10 10:27:49;;;;;;;0.57;0.50;;;11.20;99.90;;;;;;4979663;28;20073;-80
2024/03/10 10:30:28;;;;;;;0.60;0.52;;;11.20;99.90;;;;;;4979617;28;20066;-81
2024/03/10 10:33:05;;;;;;;0.50;0.50;;;11.10;99.90;;;;;;4961545;28;20154;-81
2024/03/10 10:35:54;;;;;;;0.70;0.70;;;11.10;99.90;;;;;;4981393;28;20142;-81
2024/03/10 10:38:20;;;;;;;0.52;0.47;;;11.20;99.90;;;;;;4986430;28;20053;-81
2024/03/10 10:40:51;;;;;;;0.55;0.55;;;11.20;99.90;;;;;;4978563;28;20054;-81
2024/03/10 10:43:18;;;;;;;0.50;0.50;;;11.30;99.90;;;;;;4971950;28;20105;-81
2024/03/10 10:45:46;;;;;;;0.77;0.60;;;11.30;99.90;;;;;;4945220;28;20082;-81
2024/03/10 10:48:13;;;;;;;0.63;0.63;;;11.20;99.90;;;;;;4979820;28;20074;-81
2024/03/10 10:50:43;;;;;;;0.73;0.65;;;11.20;99.90;;;;;;4980236;28;20079;-81
2024/03/10 10:53:11;;;;;;;1.20;1.00;;;11.20;99.90;;;;;;4959645;28;20069;-81
2024/03/10 10:55:39;;;;;;;1.05;0.70;;;11.20;99.90;;;;;;4945963;28;20179;-80
2024/03/10 10:58:11;;;;;;;0.70;0.70;;;11.20;99.90;;;;;;4945605;28;20784;-81
2024/03/10 11:00:42;;;;;;;0.63;0.50;;;11.30;99.90;;;;;;4979304;28;20070;-82
2024/03/10 11:03:16;;;;;;;0.52;0.50;;;11.20;99.90;;;;;;4935522;28;20065;-83
2024/03/10 11:06:06;;;;;;;0.47;0.45;;;11.30;99.90;;;;;;4959947;28;20158;-81
2024/03/10 11:08:36;;;;;;;0.50;0.50;;;11.30;99.90;;;;;;4973724;28;20064;-82
2024/03/10 11:11:05;;;;;;;0.45;0.45;;;11.30;99.90;;;;;;4956120;28;20053;-85
2024/03/10 11:13:40;;;;;;;0.50;0.50;;;11.20;99.90;;;;;;4977625;28;20406;-83
2024/03/10 11:16:11;;;;;;;0.40;0.40;;;11.20;99.90;;;;;;4978633;28;20062;-80
2024/03/10 11:18:42;;;;;;;0.50;0.50;;;11.30;99.90;;;;;;4978862;28;20061;-84
2024/03/10 11:21:19;;;;;;;0.77;0.63;;;11.10;99.90;;;;;;4979222;28;20121;-83
2024/03/10 11:23:48;;;;;;;0.60;0.60;;;11.00;99.90;;;;;;4967027;28;20050;-84
2024/03/10 11:26:17;;;;;;;0.65;0.60;;;10.90;99.90;;;;;;4981943;28;20046;-84
2024/03/10 11:28:55;;;;;;;0.80;0.60;;;10.70;1.00;;;;;;4974478;28;20066;-82
2024/03/10 11:31:23;;;;;;;1.02;0.85;;;10.60;1.00;;;;;;4976475;28;20069;-82
2024/03/10 11:33:54;;;;;;;1.10;0.90;;;10.60;1.00;;;;;;4972112;28;20054;-82
2024/03/10 11:36:22;;;;;;;1.05;0.80;;;10.60;37.90;;;;;;4989770;28;20050;-82
2024/03/10 11:38:50;;;;;;;1.10;0.85;;;10.60;99.90;;;;;;4978768;28;20168;-83
2024/03/10 11:41:20;;;;;;;0.63;0.63;;;10.60;99.90;;;;;;4978657;28;20689;-83
2024/03/10 11:43:48;;;;;;;0.90;0.70;;;10.60;99.90;;;;;;4960051;28;20407;-82
2024/03/10 11:46:25;;;;;;;0.70;0.60;;;10.60;99.90;;;;;;4979718;28;20185;-81
2024/03/10 11:48:56;;;;;;;0.70;0.70;;;10.70;99.90;;;;;;4984273;28;20054;-85
2024/03/10 11:51:27;;;;;;;0.50;0.50;;;10.80;99.90;;;;;;4980371;28;20085;-74
2024/03/10 11:53:58;;;;;;;0.73;0.60;;;10.90;99.90;;;;;;4981592;28;20054;-77
2024/03/10 11:56:25;;;;;;;0.93;0.85;;;11.00;99.90;;;;;;4967530;28;20057;-77
2024/03/10 11:58:52;;;;;;;1.10;0.90;;;11.00;1.00;;;;;;4976145;28;20046;-77
2024/03/10 12:01:19;;;;;;;1.13;0.95;;;11.00;1.00;;;;;;4977225;28;20061;-77
2024/03/10 12:03:49;;;;;;;1.65;1.25;;;11.00;1.00;;;;;;4990025;28;20054;-76
2024/03/10 12:06:16;;;;;;;1.65;1.42;;;11.00;1.30;;;;;;4978965;28;20467;-77
2024/03/10 12:08:44;;;;;;;1.45;1.30;;;10.90;1.00;;;;;;4977463;28;20438;-76
2024/03/10 12:11:12;;;;;;;1.80;1.55;;;10.70;36.40;;;;;;4977481;28;20053;-76
2024/03/10 12:13:43;;;;;;;2.13;1.92;;;10.60;1.00;;;;;;4976236;28;20159;-76
2024/03/10 12:16:11;;;;;;;2.78;2.08;;;10.40;99.90;;;;;;4978177;28;20145;-76
2024/03/10 12:18:40;;;;;;;2.15;1.95;;;10.20;99.90;;;;;;4978577;28;20055;-76
2024/03/10 12:21:15;;;;;;;2.80;2.30;;;10.20;99.90;;;;;;4977909;28;20047;-77
2024/03/10 12:23:42;;;;;;;2.72;2.45;;;10.10;1.00;;;;;;4961082;28;20061;-76
2024/03/10 12:26:16;;;;;;;3.40;2.83;;;10.00;99.90;;;;;;4978265;28;20116;-76
2024/03/10 12:28:46;;;;;;;3.27;2.67;;;10.00;99.90;;;;;;4960088;28;20055;-77
2024/03/10 12:31:15;;;;;;;4.20;2.95;;;10.00;99.90;;;;;;4958392;28;20046;-76
2024/03/10 12:33:44;;;;;;;3.10;2.80;;;10.00;99.90;;;;;;4966342;28;20082;-76
2024/03/10 12:36:12;;;;;;;3.55;2.80;;;10.00;99.90;;;;;;4984411;28;20049;-75
2024/03/10 12:38:40;;;;;;;3.63;3.08;;;10.00;99.90;;;;;;4984444;28;20057;-75
2024/03/10 12:41:07;;;;;;;3.33;2.70;;;10.00;99.90;;;;;;4984446;28;20053;-77
2024/03/10 12:43:36;;;;;;;3.30;3.00;;;10.00;99.90;;;;;;4978866;28;20120;-76
2024/03/10 12:46:04;;;;;;;3.70;3.10;;;10.00;99.90;;;;;;4984472;28;20520;-76
2024/03/10 12:48:31;;;;;;;4.72;3.65;;;10.00;99.90;;;;;;5000377;28;20558;-76
2024/03/10 12:51:02;;;;;;;4.82;4.35;;;10.00;99.90;;;;;;4985144;28;20112;-75
2024/03/10 12:53:29;;;;;;;5.43;3.90;;;10.10;99.90;;;;;;4998333;28;20096;-78
2024/03/10 12:55:58;;;;;;;6.10;4.57;;;10.10;99.90;;;;;;4997976;28;20509;-76
2024/03/10 12:58:25;;;;;;;5.20;4.68;;;10.10;99.90;;;;;;4981402;28;20045;-78
2024/03/10 13:00:52;;;;;;;4.78;4.28;;;10.10;1.00;;;;;;4983514;28;20065;-78
2024/03/10 13:03:19;;;;;;;4.68;3.95;;;10.10;1.00;;;;;;5000838;28;20058;-77
2024/03/10 13:05:45;;;;;;;4.95;4.25;;;10.20;1.00;;;;;;4995334;28;20054;-77
2024/03/10 13:08:13;;;;;;;5.70;4.80;;;10.20;99.90;;;;;;4991786;28;20061;-76
2024/03/10 13:10:40;;;;;;;6.15;5.05;;;10.20;99.90;;;;;;4991698;28;20100;-77
2024/03/10 13:13:08;;;;;;;7.28;5.95;;;10.10;99.90;;;;;;4991823;28;20085;-76
2024/03/10 13:15:36;;;;;;;5.93;5.03;;;10.10;99.90;;;;;;4975802;28;20050;-75
2024/03/10 13:18:08;;;;;;;6.60;5.75;;;10.10;99.90;;;;;;4981437;28;20049;-77
2024/03/10 13:20:36;;;;;;;5.90;5.03;;;10.10;1.00;;;;;;4967259;28;20053;-76
2024/03/10 13:23:05;;;;;;;4.95;4.43;;;10.10;3.70;;;;;;4963079;28;20108;-76
2024/03/10 13:25:34;;;;;;;5.82;4.50;;;10.20;6.10;;;;;;4994287;28;20049;-76